KSZL

Whiteman AFB Airport

Knob Noster, Missouri, USA
METAR KSZL 191056Z 19006KT 10SM CLR 22/22 A2989 RMK AO2A SLPNO T02180218
Observed Flight Rules
Sep-19 @ 10:56 UTC (18 minutes ago) Visual Flight Rules
Wind Visibility Clouds
190° at 6 knots 10 miles
  • Clear skies
Temperatures Readings
Current 22°C / 72°F
Dewpoint 22°C / 72°F
Humidity 100%
Altimeter 29.89" Hg
Pressure 1012 hPa
Elevation 265
METAR KSZL 191056Z 19006KT 10SM CLR 22/22 A2989 RMK AO2A SLPNO T02180218
Observed Flight Rules
Sep-19 @ 10:56 UTC
(18 minutes ago)
VFR
Wind Visibility
190° at 6 knots 10 miles
Clouds
  • Clear skies
Temperature Dewpoint
22°C / 72°F 22°C / 72°F
Humidity Altimeter Pressure
100% 29.89" Hg 1012 hPa